sensor_id;sensor_type;location;lat;lon;timestamp;P1;durP1;ratioP1;P2;durP2;ratioP2
16705;SDS011;8469;60.136;15.180;2024-02-15T00:00:10;4.62;;;2.80;;
16705;SDS011;8469;60.136;15.180;2024-02-15T00:02:38;5.83;;;2.55;;
16705;SDS011;8469;60.136;15.180;2024-02-15T00:05:05;3.80;;;2.70;;
16705;SDS011;8469;60.136;15.180;2024-02-15T00:07:34;5.67;;;2.60;;
16705;SDS011;8469;60.136;15.180;2024-02-15T00:10:01;5.37;;;2.45;;
16705;SDS011;8469;60.136;15.180;2024-02-15T00:12:29;4.22;;;2.60;;
16705;SDS011;8469;60.136;15.180;2024-02-15T00:14:57;4.37;;;2.62;;
16705;SDS011;8469;60.136;15.180;2024-02-15T00:17:24;4.33;;;2.70;;
16705;SDS011;8469;60.136;15.180;2024-02-15T00:19:53;5.28;;;2.98;;
16705;SDS011;8469;60.136;15.180;2024-02-15T00:22:21;4.70;;;2.70;;
16705;SDS011;8469;60.136;15.180;2024-02-15T00:24:48;5.75;;;3.30;;
16705;SDS011;8469;60.136;15.180;2024-02-15T00:27:17;4.78;;;2.50;;
16705;SDS011;8469;60.136;15.180;2024-02-15T00:29:44;4.15;;;2.90;;
16705;SDS011;8469;60.136;15.180;2024-02-15T00:32:12;5.53;;;2.90;;
16705;SDS011;8469;60.136;15.180;2024-02-15T00:34:39;5.80;;;3.02;;
16705;SDS011;8469;60.136;15.180;2024-02-15T00:37:06;5.75;;;2.67;;
16705;SDS011;8469;60.136;15.180;2024-02-15T00:39:33;9.83;;;2.75;;
16705;SDS011;8469;60.136;15.180;2024-02-15T00:42:05;3.85;;;2.70;;
16705;SDS011;8469;60.136;15.180;2024-02-15T00:44:34;5.95;;;2.80;;
16705;SDS011;8469;60.136;15.180;2024-02-15T00:47:02;6.12;;;2.77;;
16705;SDS011;8469;60.136;15.180;2024-02-15T00:49:29;6.05;;;2.77;;
16705;SDS011;8469;60.136;15.180;2024-02-15T00:51:56;4.37;;;2.70;;
16705;SDS011;8469;60.136;15.180;2024-02-15T00:54:24;5.12;;;2.80;;
16705;SDS011;8469;60.136;15.180;2024-02-15T00:56:51;7.22;;;3.20;;
16705;SDS011;8469;60.136;15.180;2024-02-15T00:59:19;5.58;;;2.98;;
16705;SDS011;8469;60.136;15.180;2024-02-15T01:01:46;5.80;;;2.65;;
16705;SDS011;8469;60.136;15.180;2024-02-15T01:04:14;4.80;;;2.80;;
16705;SDS011;8469;60.136;15.180;2024-02-15T01:06:42;3.67;;;2.50;;
16705;SDS011;8469;60.136;15.180;2024-02-15T01:09:09;6.20;;;3.00;;
16705;SDS011;8469;60.136;15.180;2024-02-15T01:11:37;6.53;;;2.90;;
16705;SDS011;8469;60.136;15.180;2024-02-15T01:14:04;5.97;;;3.67;;
16705;SDS011;8469;60.136;15.180;2024-02-15T01:16:33;6.13;;;3.03;;
16705;SDS011;8469;60.136;15.180;2024-02-15T01:19:01;6.30;;;3.13;;
16705;SDS011;8469;60.136;15.180;2024-02-15T01:21:29;6.53;;;3.30;;
16705;SDS011;8469;60.136;15.180;2024-02-15T01:23:57;6.65;;;3.35;;
16705;SDS011;8469;60.136;15.180;2024-02-15T01:26:26;4.70;;;3.13;;
16705;SDS011;8469;60.136;15.180;2024-02-15T01:28:53;5.43;;;3.00;;
16705;SDS011;8469;60.136;15.180;2024-02-15T01:31:21;6.15;;;3.15;;
16705;SDS011;8469;60.136;15.180;2024-02-15T01:33:49;12.07;;;3.53;;
16705;SDS011;8469;60.136;15.180;2024-02-15T01:36:16;5.83;;;3.02;;
16705;SDS011;8469;60.136;15.180;2024-02-15T01:38:44;5.33;;;3.08;;
16705;SDS011;8469;60.136;15.180;2024-02-15T01:41:11;4.47;;;2.90;;
16705;SDS011;8469;60.136;15.180;2024-02-15T01:43:42;7.58;;;3.35;;
16705;SDS011;8469;60.136;15.180;2024-02-15T01:46:08;7.87;;;3.33;;
16705;SDS011;8469;60.136;15.180;2024-02-15T01:48:37;7.67;;;2.85;;
16705;SDS011;8469;60.136;15.180;2024-02-15T01:51:04;5.67;;;3.17;;
16705;SDS011;8469;60.136;15.180;2024-02-15T01:53:32;5.55;;;3.40;;
16705;SDS011;8469;60.136;15.180;2024-02-15T01:55:59;7.30;;;3.10;;
16705;SDS011;8469;60.136;15.180;2024-02-15T01:58:28;9.65;;;3.40;;
16705;SDS011;8469;60.136;15.180;2024-02-15T02:00:59;4.42;;;3.02;;
16705;SDS011;8469;60.136;15.180;2024-02-15T02:03:28;6.25;;;3.12;;
16705;SDS011;8469;60.136;15.180;2024-02-15T02:05:56;7.35;;;3.37;;
16705;SDS011;8469;60.136;15.180;2024-02-15T02:08:24;6.62;;;3.55;;
16705;SDS011;8469;60.136;15.180;2024-02-15T02:10:51;5.70;;;3.00;;
16705;SDS011;8469;60.136;15.180;2024-02-15T02:13:19;4.28;;;2.90;;
16705;SDS011;8469;60.136;15.180;2024-02-15T02:15:47;4.17;;;2.40;;
16705;SDS011;8469;60.136;15.180;2024-02-15T02:18:14;7.03;;;2.87;;
16705;SDS011;8469;60.136;15.180;2024-02-15T02:20:42;4.43;;;2.77;;
16705;SDS011;8469;60.136;15.180;2024-02-15T02:23:13;7.70;;;2.75;;
16705;SDS011;8469;60.136;15.180;2024-02-15T02:25:41;5.80;;;2.75;;
16705;SDS011;8469;60.136;15.180;2024-02-15T02:28:10;5.97;;;3.23;;
16705;SDS011;8469;60.136;15.180;2024-02-15T02:30:39;8.28;;;3.17;;
16705;SDS011;8469;60.136;15.180;2024-02-15T02:33:13;4.00;;;2.77;;
16705;SDS011;8469;60.136;15.180;2024-02-15T02:35:43;4.75;;;2.47;;
16705;SDS011;8469;60.136;15.180;2024-02-15T02:38:10;7.05;;;2.70;;
16705;SDS011;8469;60.136;15.180;2024-02-15T02:40:37;3.62;;;2.30;;
16705;SDS011;8469;60.136;15.180;2024-02-15T02:43:05;3.45;;;2.20;;
16705;SDS011;8469;60.136;15.180;2024-02-15T02:45:32;4.53;;;2.30;;
16705;SDS011;8469;60.136;15.180;2024-02-15T02:48:01;3.37;;;2.30;;
16705;SDS011;8469;60.136;15.180;2024-02-15T02:50:28;3.47;;;2.00;;
16705;SDS011;8469;60.136;15.180;2024-02-15T02:52:55;4.47;;;1.95;;
16705;SDS011;8469;60.136;15.180;2024-02-15T02:55:23;2.98;;;1.70;;
16705;SDS011;8469;60.136;15.180;2024-02-15T02:57:51;3.90;;;1.95;;
16705;SDS011;8469;60.136;15.180;2024-02-15T03:00:21;4.08;;;2.27;;
16705;SDS011;8469;60.136;15.180;2024-02-15T03:02:48;3.30;;;2.00;;
16705;SDS011;8469;60.136;15.180;2024-02-15T03:05:16;3.10;;;1.83;;
16705;SDS011;8469;60.136;15.180;2024-02-15T03:07:45;3.90;;;1.70;;
16705;SDS011;8469;60.136;15.180;2024-02-15T03:10:12;1.85;;;1.57;;
16705;SDS011;8469;60.136;15.180;2024-02-15T03:12:39;4.70;;;1.55;;
16705;SDS011;8469;60.136;15.180;2024-02-15T03:15:09;5.30;;;2.00;;
16705;SDS011;8469;60.136;15.180;2024-02-15T03:17:43;6.12;;;2.80;;
16705;SDS011;8469;60.136;15.180;2024-02-15T03:20:08;5.87;;;1.93;;
16705;SDS011;8469;60.136;15.180;2024-02-15T03:22:37;4.90;;;1.50;;
16705;SDS011;8469;60.136;15.180;2024-02-15T03:25:05;4.40;;;1.72;;
16705;SDS011;8469;60.136;15.180;2024-02-15T03:27:35;3.67;;;1.40;;
16705;SDS011;8469;60.136;15.180;2024-02-15T03:30:03;8.05;;;4.70;;
16705;SDS011;8469;60.136;15.180;2024-02-15T03:32:31;4.60;;;3.12;;
16705;SDS011;8469;60.136;15.180;2024-02-15T03:34:58;6.65;;;2.72;;
16705;SDS011;8469;60.136;15.180;2024-02-15T03:37:27;3.15;;;1.75;;
16705;SDS011;8469;60.136;15.180;2024-02-15T03:39:59;2.92;;;1.20;;
16705;SDS011;8469;60.136;15.180;2024-02-15T03:42:23;2.55;;;1.30;;
16705;SDS011;8469;60.136;15.180;2024-02-15T03:44:52;2.25;;;1.07;;
16705;SDS011;8469;60.136;15.180;2024-02-15T03:47:20;1.85;;;1.02;;
16705;SDS011;8469;60.136;15.180;2024-02-15T03:49:48;1.70;;;1.50;;
16705;SDS011;8469;60.136;15.180;2024-02-15T03:52:15;2.93;;;1.60;;
16705;SDS011;8469;60.136;15.180;2024-02-15T03:54:45;2.90;;;1.90;;
16705;SDS011;8469;60.136;15.180;2024-02-15T03:57:13;3.33;;;1.90;;
16705;SDS011;8469;60.136;15.180;2024-02-15T03:59:42;3.98;;;2.30;;
16705;SDS011;8469;60.136;15.180;2024-02-15T04:02:09;4.87;;;2.00;;
16705;SDS011;8469;60.136;15.180;2024-02-15T04:04:38;3.17;;;1.67;;
16705;SDS011;8469;60.136;15.180;2024-02-15T04:07:07;3.15;;;1.70;;
16705;SDS011;8469;60.136;15.180;2024-02-15T04:09:35;2.35;;;1.72;;
16705;SDS011;8469;60.136;15.180;2024-02-15T04:12:05;4.45;;;1.62;;
16705;SDS011;8469;60.136;15.180;2024-02-15T04:14:36;3.77;;;1.70;;
16705;SDS011;8469;60.136;15.180;2024-02-15T04:17:04;2.27;;;1.82;;
16705;SDS011;8469;60.136;15.180;2024-02-15T04:19:32;1.82;;;1.65;;
16705;SDS011;8469;60.136;15.180;2024-02-15T04:21:59;1.67;;;1.50;;
16705;SDS011;8469;60.136;15.180;2024-02-15T04:24:31;4.45;;;1.77;;
16705;SDS011;8469;60.136;15.180;2024-02-15T04:26:58;3.12;;;1.60;;
16705;SDS011;8469;60.136;15.180;2024-02-15T04:29:25;4.10;;;1.70;;
16705;SDS011;8469;60.136;15.180;2024-02-15T04:31:53;2.87;;;1.67;;
16705;SDS011;8469;60.136;15.180;2024-02-15T04:34:21;1.83;;;1.30;;
16705;SDS011;8469;60.136;15.180;2024-02-15T04:36:48;2.05;;;1.50;;
16705;SDS011;8469;60.136;15.180;2024-02-15T04:39:26;4.37;;;1.70;;
16705;SDS011;8469;60.136;15.180;2024-02-15T04:41:55;2.77;;;1.70;;
16705;SDS011;8469;60.136;15.180;2024-02-15T04:44:22;2.83;;;1.30;;
16705;SDS011;8469;60.136;15.180;2024-02-15T04:46:51;4.53;;;1.50;;
16705;SDS011;8469;60.136;15.180;2024-02-15T04:49:19;3.80;;;1.50;;
16705;SDS011;8469;60.136;15.180;2024-02-15T04:51:47;3.70;;;1.60;;
16705;SDS011;8469;60.136;15.180;2024-02-15T04:54:14;2.40;;;1.72;;
16705;SDS011;8469;60.136;15.180;2024-02-15T04:56:42;3.67;;;1.67;;
16705;SDS011;8469;60.136;15.180;2024-02-15T04:59:10;2.05;;;1.60;;
16705;SDS011;8469;60.136;15.180;2024-02-15T05:01:42;2.80;;;1.60;;
16705;SDS011;8469;60.136;15.180;2024-02-15T05:04:10;4.62;;;1.62;;
16705;SDS011;8469;60.136;15.180;2024-02-15T05:06:38;2.35;;;1.52;;
16705;SDS011;8469;60.136;15.180;2024-02-15T05:09:05;1.60;;;1.50;;
16705;SDS011;8469;60.136;15.180;2024-02-15T05:11:44;1.53;;;1.43;;
16705;SDS011;8469;60.136;15.180;2024-02-15T05:14:09;5.58;;;2.00;;
16705;SDS011;8469;60.136;15.180;2024-02-15T05:16:37;4.08;;;1.57;;
16705;SDS011;8469;60.136;15.180;2024-02-15T05:19:09;3.33;;;1.70;;
16705;SDS011;8469;60.136;15.180;2024-02-15T05:21:38;2.75;;;1.60;;
16705;SDS011;8469;60.136;15.180;2024-02-15T05:24:09;5.47;;;1.75;;
16705;SDS011;8469;60.136;15.180;2024-02-15T05:26:48;3.52;;;2.02;;
16705;SDS011;8469;60.136;15.180;2024-02-15T05:29:23;2.65;;;1.50;;
16705;SDS011;8469;60.136;15.180;2024-02-15T05:31:56;3.03;;;1.60;;
16705;SDS011;8469;60.136;15.180;2024-02-15T05:34:30;3.50;;;1.90;;
16705;SDS011;8469;60.136;15.180;2024-02-15T05:37:03;2.20;;;1.87;;
16705;SDS011;8469;60.136;15.180;2024-02-15T05:39:37;3.67;;;1.82;;
16705;SDS011;8469;60.136;15.180;2024-02-15T05:42:07;2.00;;;1.82;;
16705;SDS011;8469;60.136;15.180;2024-02-15T05:44:36;2.85;;;1.90;;
16705;SDS011;8469;60.136;15.180;2024-02-15T05:47:03;2.37;;;1.90;;
16705;SDS011;8469;60.136;15.180;2024-02-15T05:49:31;4.45;;;1.85;;
16705;SDS011;8469;60.136;15.180;2024-02-15T05:52:01;2.92;;;1.67;;
16705;SDS011;8469;60.136;15.180;2024-02-15T05:54:33;3.52;;;1.98;;
16705;SDS011;8469;60.136;15.180;2024-02-15T05:56:59;2.00;;;1.75;;
16705;SDS011;8469;60.136;15.180;2024-02-15T05:59:27;3.75;;;2.10;;
16705;SDS011;8469;60.136;15.180;2024-02-15T06:01:55;3.95;;;2.10;;
16705;SDS011;8469;60.136;15.180;2024-02-15T06:04:23;2.50;;;2.10;;
16705;SDS011;8469;60.136;15.180;2024-02-15T06:06:51;2.93;;;1.83;;
16705;SDS011;8469;60.136;15.180;2024-02-15T06:09:20;2.90;;;2.17;;
16705;SDS011;8469;60.136;15.180;2024-02-15T06:11:49;3.97;;;2.47;;
16705;SDS011;8469;60.136;15.180;2024-02-15T06:14:18;3.33;;;2.10;;
16705;SDS011;8469;60.136;15.180;2024-02-15T06:16:46;6.00;;;2.52;;
16705;SDS011;8469;60.136;15.180;2024-02-15T06:19:14;4.50;;;2.58;;
16705;SDS011;8469;60.136;15.180;2024-02-15T06:21:42;3.80;;;2.42;;
16705;SDS011;8469;60.136;15.180;2024-02-15T06:24:09;4.42;;;2.40;;
16705;SDS011;8469;60.136;15.180;2024-02-15T06:26:38;5.53;;;2.25;;
16705;SDS011;8469;60.136;15.180;2024-02-15T06:29:06;2.30;;;2.10;;
16705;SDS011;8469;60.136;15.180;2024-02-15T06:31:51;2.70;;;2.05;;
16705;SDS011;8469;60.136;15.180;2024-02-15T06:34:36;4.65;;;2.40;;
16705;SDS011;8469;60.136;15.180;2024-02-15T06:37:36;5.20;;;2.47;;
16705;SDS011;8469;60.136;15.180;2024-02-15T06:40:22;3.07;;;2.77;;
16705;SDS011;8469;60.136;15.180;2024-02-15T06:42:50;4.35;;;2.60;;
16705;SDS011;8469;60.136;15.180;2024-02-15T06:45:17;3.70;;;2.57;;
16705;SDS011;8469;60.136;15.180;2024-02-15T06:47:46;5.65;;;3.00;;
16705;SDS011;8469;60.136;15.180;2024-02-15T06:50:13;6.40;;;2.55;;
16705;SDS011;8469;60.136;15.180;2024-02-15T06:52:41;6.50;;;3.33;;
16705;SDS011;8469;60.136;15.180;2024-02-15T06:55:08;6.37;;;3.40;;
16705;SDS011;8469;60.136;15.180;2024-02-15T06:57:40;5.78;;;3.47;;
16705;SDS011;8469;60.136;15.180;2024-02-15T07:00:09;9.78;;;3.45;;
16705;SDS011;8469;60.136;15.180;2024-02-15T07:02:38;9.40;;;3.75;;
16705;SDS011;8469;60.136;15.180;2024-02-15T07:05:06;8.47;;;3.97;;
16705;SDS011;8469;60.136;15.180;2024-02-15T07:07:33;8.78;;;4.08;;
16705;SDS011;8469;60.136;15.180;2024-02-15T07:10:05;10.85;;;3.98;;
16705;SDS011;8469;60.136;15.180;2024-02-15T07:12:29;12.45;;;3.92;;
16705;SDS011;8469;60.136;15.180;2024-02-15T07:14:58;13.48;;;4.33;;
16705;SDS011;8469;60.136;15.180;2024-02-15T07:17:27;20.08;;;3.90;;
16705;SDS011;8469;60.136;15.180;2024-02-15T07:19:55;14.95;;;4.60;;
16705;SDS011;8469;60.136;15.180;2024-02-15T07:22:23;18.92;;;4.58;;
16705;SDS011;8469;60.136;15.180;2024-02-15T07:24:50;12.88;;;4.35;;
16705;SDS011;8469;60.136;15.180;2024-02-15T07:27:18;7.22;;;3.40;;
16705;SDS011;8469;60.136;15.180;2024-02-15T07:29:47;4.97;;;3.30;;
16705;SDS011;8469;60.136;15.180;2024-02-15T07:32:14;4.62;;;2.80;;
16705;SDS011;8469;60.136;15.180;2024-02-15T07:34:43;5.45;;;3.10;;
16705;SDS011;8469;60.136;15.180;2024-02-15T07:37:11;8.50;;;3.60;;
16705;SDS011;8469;60.136;15.180;2024-02-15T07:39:39;4.55;;;3.10;;
16705;SDS011;8469;60.136;15.180;2024-02-15T07:42:06;4.05;;;3.00;;
16705;SDS011;8469;60.136;15.180;2024-02-15T07:44:37;6.72;;;2.90;;
16705;SDS011;8469;60.136;15.180;2024-02-15T07:47:04;6.70;;;3.90;;
16705;SDS011;8469;60.136;15.180;2024-02-15T07:49:32;5.70;;;4.00;;
16705;SDS011;8469;60.136;15.180;2024-02-15T07:52:00;6.08;;;3.50;;
16705;SDS011;8469;60.136;15.180;2024-02-15T07:54:28;12.00;;;5.10;;
16705;SDS011;8469;60.136;15.180;2024-02-15T07:56:56;7.87;;;4.90;;
16705;SDS011;8469;60.136;15.180;2024-02-15T07:59:27;14.68;;;6.97;;
16705;SDS011;8469;60.136;15.180;2024-02-15T08:01:55;14.15;;;5.97;;
16705;SDS011;8469;60.136;15.180;2024-02-15T08:04:22;8.55;;;4.80;;
16705;SDS011;8469;60.136;15.180;2024-02-15T08:06:51;7.60;;;4.33;;
16705;SDS011;8469;60.136;15.180;2024-02-15T08:09:20;7.53;;;4.00;;
16705;SDS011;8469;60.136;15.180;2024-02-15T08:11:49;7.30;;;3.95;;
16705;SDS011;8469;60.136;15.180;2024-02-15T08:14:17;6.83;;;3.80;;
16705;SDS011;8469;60.136;15.180;2024-02-15T08:16:45;7.15;;;3.90;;
16705;SDS011;8469;60.136;15.180;2024-02-15T08:19:13;8.98;;;3.70;;
16705;SDS011;8469;60.136;15.180;2024-02-15T08:21:41;9.58;;;4.08;;
16705;SDS011;8469;60.136;15.180;2024-02-15T08:24:10;6.92;;;3.83;;
16705;SDS011;8469;60.136;15.180;2024-02-15T08:26:38;6.75;;;4.33;;
16705;SDS011;8469;60.136;15.180;2024-02-15T08:29:05;7.12;;;3.83;;
16705;SDS011;8469;60.136;15.180;2024-02-15T08:31:33;11.40;;;6.25;;
16705;SDS011;8469;60.136;15.180;2024-02-15T08:34:03;17.57;;;8.05;;
16705;SDS011;8469;60.136;15.180;2024-02-15T08:36:32;9.33;;;5.08;;
16705;SDS011;8469;60.136;15.180;2024-02-15T08:38:59;6.78;;;4.15;;
16705;SDS011;8469;60.136;15.180;2024-02-15T08:41:27;5.22;;;3.50;;
16705;SDS011;8469;60.136;15.180;2024-02-15T08:43:55;5.40;;;3.20;;
16705;SDS011;8469;60.136;15.180;2024-02-15T08:46:27;4.23;;;3.20;;
16705;SDS011;8469;60.136;15.180;2024-02-15T08:48:54;6.00;;;3.85;;
16705;SDS011;8469;60.136;15.180;2024-02-15T08:51:22;10.13;;;4.07;;
16705;SDS011;8469;60.136;15.180;2024-02-15T08:53:49;4.03;;;3.33;;
16705;SDS011;8469;60.136;15.180;2024-02-15T08:56:17;5.20;;;3.90;;
16705;SDS011;8469;60.136;15.180;2024-02-15T08:58:44;8.05;;;4.37;;
16705;SDS011;8469;60.136;15.180;2024-02-15T09:01:12;6.33;;;4.03;;
16705;SDS011;8469;60.136;15.180;2024-02-15T09:03:39;7.80;;;4.00;;
16705;SDS011;8469;60.136;15.180;2024-02-15T09:06:06;6.62;;;4.42;;
16705;SDS011;8469;60.136;15.180;2024-02-15T09:08:34;7.28;;;4.42;;
16705;SDS011;8469;60.136;15.180;2024-02-15T09:11:01;7.53;;;4.67;;
16705;SDS011;8469;60.136;15.180;2024-02-15T09:13:28;8.65;;;4.53;;
16705;SDS011;8469;60.136;15.180;2024-02-15T09:15:56;6.42;;;4.40;;
16705;SDS011;8469;60.136;15.180;2024-02-15T09:18:23;6.53;;;4.37;;
16705;SDS011;8469;60.136;15.180;2024-02-15T09:20:50;6.53;;;4.40;;
16705;SDS011;8469;60.136;15.180;2024-02-15T09:23:19;5.60;;;3.80;;
16705;SDS011;8469;60.136;15.180;2024-02-15T09:25:46;7.50;;;3.80;;
16705;SDS011;8469;60.136;15.180;2024-02-15T09:28:15;7.27;;;4.03;;
16705;SDS011;8469;60.136;15.180;2024-02-15T09:30:44;6.58;;;4.10;;
16705;SDS011;8469;60.136;15.180;2024-02-15T09:33:13;7.53;;;4.00;;
16705;SDS011;8469;60.136;15.180;2024-02-15T09:35:40;8.20;;;4.00;;
16705;SDS011;8469;60.136;15.180;2024-02-15T09:38:07;5.13;;;3.33;;
16705;SDS011;8469;60.136;15.180;2024-02-15T09:40:35;7.00;;;3.65;;
16705;SDS011;8469;60.136;15.180;2024-02-15T09:43:03;9.78;;;4.15;;
16705;SDS011;8469;60.136;15.180;2024-02-15T09:45:30;6.50;;;3.90;;
16705;SDS011;8469;60.136;15.180;2024-02-15T09:47:59;7.72;;;4.17;;
16705;SDS011;8469;60.136;15.180;2024-02-15T09:50:28;5.47;;;3.90;;
16705;SDS011;8469;60.136;15.180;2024-02-15T09:52:57;5.90;;;3.62;;
16705;SDS011;8469;60.136;15.180;2024-02-15T09:55:24;4.95;;;3.58;;
16705;SDS011;8469;60.136;15.180;2024-02-15T09:57:52;4.83;;;3.60;;
16705;SDS011;8469;60.136;15.180;2024-02-15T10:00:20;5.60;;;3.40;;
16705;SDS011;8469;60.136;15.180;2024-02-15T10:02:51;7.05;;;3.27;;
16705;SDS011;8469;60.136;15.180;2024-02-15T10:05:20;7.00;;;3.42;;
16705;SDS011;8469;60.136;15.180;2024-02-15T10:07:50;5.10;;;3.50;;
16705;SDS011;8469;60.136;15.180;2024-02-15T10:10:18;5.55;;;3.65;;
16705;SDS011;8469;60.136;15.180;2024-02-15T10:12:46;6.17;;;3.77;;
16705;SDS011;8469;60.136;15.180;2024-02-15T10:15:38;6.50;;;3.50;;
16705;SDS011;8469;60.136;15.180;2024-02-15T10:18:07;7.87;;;3.83;;
16705;SDS011;8469;60.136;15.180;2024-02-15T10:20:37;6.28;;;3.70;;
16705;SDS011;8469;60.136;15.180;2024-02-15T10:25:35;6.33;;;3.75;;
16705;SDS011;8469;60.136;15.180;2024-02-15T10:28:07;4.25;;;3.20;;
16705;SDS011;8469;60.136;15.180;2024-02-15T10:30:35;7.05;;;3.42;;
16705;SDS011;8469;60.136;15.180;2024-02-15T10:33:03;5.50;;;3.12;;
16705;SDS011;8469;60.136;15.180;2024-02-15T10:35:30;6.90;;;3.30;;
16705;SDS011;8469;60.136;15.180;2024-02-15T10:38:06;5.00;;;3.00;;
16705;SDS011;8469;60.136;15.180;2024-02-15T10:40:37;4.53;;;3.20;;
16705;SDS011;8469;60.136;15.180;2024-02-15T10:43:06;4.42;;;2.98;;
16705;SDS011;8469;60.136;15.180;2024-02-15T10:45:34;5.72;;;3.22;;
16705;SDS011;8469;60.136;15.180;2024-02-15T10:48:07;6.12;;;3.08;;
16705;SDS011;8469;60.136;15.180;2024-02-15T10:50:35;4.28;;;3.08;;
16705;SDS011;8469;60.136;15.180;2024-02-15T10:53:15;5.37;;;3.15;;
16705;SDS011;8469;60.136;15.180;2024-02-15T10:55:53;4.10;;;2.90;;
16705;SDS011;8469;60.136;15.180;2024-02-15T10:58:20;10.05;;;3.40;;
16705;SDS011;8469;60.136;15.180;2024-02-15T11:00:47;3.25;;;2.90;;
16705;SDS011;8469;60.136;15.180;2024-02-15T11:03:24;5.87;;;2.80;;
16705;SDS011;8469;60.136;15.180;2024-02-15T11:05:46;5.08;;;2.83;;
16705;SDS011;8469;60.136;15.180;2024-02-15T11:08:14;3.65;;;2.90;;
16705;SDS011;8469;60.136;15.180;2024-02-15T11:10:43;3.37;;;2.60;;
16705;SDS011;8469;60.136;15.180;2024-02-15T11:13:10;5.15;;;3.05;;
16705;SDS011;8469;60.136;15.180;2024-02-15T11:15:39;3.27;;;2.70;;
16705;SDS011;8469;60.136;15.180;2024-02-15T11:18:08;6.37;;;3.17;;
16705;SDS011;8469;60.136;15.180;2024-02-15T11:23:05;3.87;;;2.70;;
16705;SDS011;8469;60.136;15.180;2024-02-15T11:25:32;4.53;;;3.00;;
16705;SDS011;8469;60.136;15.180;2024-02-15T11:30:58;4.10;;;2.80;;
16705;SDS011;8469;60.136;15.180;2024-02-15T11:36:11;6.92;;;2.83;;
16705;SDS011;8469;60.136;15.180;2024-02-15T11:38:39;5.60;;;2.90;;
16705;SDS011;8469;60.136;15.180;2024-02-15T11:41:16;5.28;;;2.80;;
16705;SDS011;8469;60.136;15.180;2024-02-15T11:46:14;4.03;;;3.00;;
16705;SDS011;8469;60.136;15.180;2024-02-15T11:48:42;5.17;;;3.20;;
16705;SDS011;8469;60.136;15.180;2024-02-15T11:51:10;4.53;;;2.47;;
16705;SDS011;8469;60.136;15.180;2024-02-15T11:53:37;4.47;;;2.60;;
16705;SDS011;8469;60.136;15.180;2024-02-15T11:56:05;5.67;;;2.72;;
16705;SDS011;8469;60.136;15.180;2024-02-15T11:58:34;5.20;;;2.50;;
16705;SDS011;8469;60.136;15.180;2024-02-15T12:01:12;3.67;;;2.95;;
16705;SDS011;8469;60.136;15.180;2024-02-15T12:03:58;4.28;;;2.62;;
16705;SDS011;8469;60.136;15.180;2024-02-15T12:06:43;4.85;;;2.50;;
16705;SDS011;8469;60.136;15.180;2024-02-15T12:09:29;3.63;;;2.63;;
16705;SDS011;8469;60.136;15.180;2024-02-15T12:12:14;4.78;;;2.98;;
16705;SDS011;8469;60.136;15.180;2024-02-15T12:15:00;3.37;;;2.62;;
16705;SDS011;8469;60.136;15.180;2024-02-15T12:17:45;5.10;;;2.40;;
16705;SDS011;8469;60.136;15.180;2024-02-15T12:20:30;2.92;;;2.02;;
16705;SDS011;8469;60.136;15.180;2024-02-15T12:22:58;4.37;;;2.50;;
16705;SDS011;8469;60.136;15.180;2024-02-15T12:25:26;6.00;;;2.12;;
16705;SDS011;8469;60.136;15.180;2024-02-15T12:27:58;3.75;;;2.00;;
16705;SDS011;8469;60.136;15.180;2024-02-15T12:30:25;3.25;;;2.17;;
16705;SDS011;8469;60.136;15.180;2024-02-15T12:32:55;3.72;;;2.05;;
16705;SDS011;8469;60.136;15.180;2024-02-15T12:35:23;5.40;;;2.42;;
16705;SDS011;8469;60.136;15.180;2024-02-15T12:38:02;2.80;;;2.22;;
16705;SDS011;8469;60.136;15.180;2024-02-15T12:40:31;2.20;;;2.00;;
16705;SDS011;8469;60.136;15.180;2024-02-15T12:43:00;3.42;;;1.77;;
16705;SDS011;8469;60.136;15.180;2024-02-15T12:45:27;4.30;;;2.42;;
16705;SDS011;8469;60.136;15.180;2024-02-15T12:47:56;4.95;;;2.30;;
16705;SDS011;8469;60.136;15.180;2024-02-15T12:50:27;3.25;;;2.30;;
16705;SDS011;8469;60.136;15.180;2024-02-15T12:52:53;5.17;;;2.17;;
16705;SDS011;8469;60.136;15.180;2024-02-15T12:55:32;2.95;;;1.70;;
16705;SDS011;8469;60.136;15.180;2024-02-15T12:58:02;3.77;;;2.02;;
16705;SDS011;8469;60.136;15.180;2024-02-15T13:00:34;3.85;;;2.50;;
16705;SDS011;8469;60.136;15.180;2024-02-15T13:03:09;2.35;;;1.70;;
16705;SDS011;8469;60.136;15.180;2024-02-15T13:05:37;2.12;;;1.77;;
16705;SDS011;8469;60.136;15.180;2024-02-15T13:08:09;2.50;;;1.70;;
16705;SDS011;8469;60.136;15.180;2024-02-15T13:10:43;3.37;;;1.67;;
16705;SDS011;8469;60.136;15.180;2024-02-15T13:13:11;1.77;;;1.50;;
16705;SDS011;8469;60.136;15.180;2024-02-15T13:15:40;2.75;;;1.80;;
16705;SDS011;8469;60.136;15.180;2024-02-15T13:18:07;2.90;;;1.60;;
16705;SDS011;8469;60.136;15.180;2024-02-15T13:20:36;1.47;;;1.37;;
16705;SDS011;8469;60.136;15.180;2024-02-15T13:23:10;1.70;;;1.60;;
16705;SDS011;8469;60.136;15.180;2024-02-15T13:25:53;2.83;;;1.65;;
16705;SDS011;8469;60.136;15.180;2024-02-15T13:28:22;2.72;;;1.90;;
16705;SDS011;8469;60.136;15.180;2024-02-15T13:30:50;4.10;;;1.82;;
16705;SDS011;8469;60.136;15.180;2024-02-15T13:33:19;2.02;;;1.75;;
16705;SDS011;8469;60.136;15.180;2024-02-15T13:35:48;4.30;;;2.08;;
16705;SDS011;8469;60.136;15.180;2024-02-15T13:38:16;3.10;;;1.87;;
16705;SDS011;8469;60.136;15.180;2024-02-15T13:40:45;3.15;;;1.60;;
16705;SDS011;8469;60.136;15.180;2024-02-15T13:43:14;1.90;;;1.57;;
16705;SDS011;8469;60.136;15.180;2024-02-15T13:45:43;2.40;;;1.70;;
16705;SDS011;8469;60.136;15.180;2024-02-15T13:48:11;3.58;;;1.90;;
16705;SDS011;8469;60.136;15.180;2024-02-15T13:50:42;4.12;;;1.82;;
16705;SDS011;8469;60.136;15.180;2024-02-15T13:53:10;3.23;;;1.80;;
16705;SDS011;8469;60.136;15.180;2024-02-15T13:55:39;2.12;;;1.70;;
16705;SDS011;8469;60.136;15.180;2024-02-15T13:58:07;3.15;;;1.90;;
16705;SDS011;8469;60.136;15.180;2024-02-15T14:00:35;3.58;;;2.45;;
16705;SDS011;8469;60.136;15.180;2024-02-15T14:03:03;2.17;;;1.60;;
16705;SDS011;8469;60.136;15.180;2024-02-15T14:05:32;2.02;;;1.60;;
16705;SDS011;8469;60.136;15.180;2024-02-15T14:08:00;1.65;;;1.50;;
16705;SDS011;8469;60.136;15.180;2024-02-15T14:10:30;2.33;;;1.50;;
16705;SDS011;8469;60.136;15.180;2024-02-15T14:13:00;2.12;;;1.50;;
16705;SDS011;8469;60.136;15.180;2024-02-15T14:15:35;2.20;;;1.60;;
16705;SDS011;8469;60.136;15.180;2024-02-15T14:18:10;2.62;;;1.70;;
16705;SDS011;8469;60.136;15.180;2024-02-15T14:20:35;1.42;;;1.32;;
16705;SDS011;8469;60.136;15.180;2024-02-15T14:23:03;1.60;;;1.35;;
16705;SDS011;8469;60.136;15.180;2024-02-15T14:25:32;1.70;;;1.30;;
16705;SDS011;8469;60.136;15.180;2024-02-15T14:27:59;1.57;;;1.40;;
16705;SDS011;8469;60.136;15.180;2024-02-15T14:30:27;2.55;;;1.40;;
16705;SDS011;8469;60.136;15.180;2024-02-15T14:33:12;1.72;;;1.32;;
16705;SDS011;8469;60.136;15.180;2024-02-15T14:35:41;3.17;;;1.40;;
16705;SDS011;8469;60.136;15.180;2024-02-15T14:38:09;5.65;;;1.67;;
16705;SDS011;8469;60.136;15.180;2024-02-15T14:40:41;2.20;;;1.60;;
16705;SDS011;8469;60.136;15.180;2024-02-15T14:43:09;3.10;;;1.90;;
16705;SDS011;8469;60.136;15.180;2024-02-15T14:45:44;1.77;;;1.50;;
16705;SDS011;8469;60.136;15.180;2024-02-15T14:48:08;1.70;;;1.60;;
16705;SDS011;8469;60.136;15.180;2024-02-15T14:50:39;2.22;;;1.60;;
16705;SDS011;8469;60.136;15.180;2024-02-15T14:53:07;2.27;;;1.55;;
16705;SDS011;8469;60.136;15.180;2024-02-15T14:55:34;2.45;;;1.70;;
16705;SDS011;8469;60.136;15.180;2024-02-15T14:58:04;5.35;;;1.90;;
16705;SDS011;8469;60.136;15.180;2024-02-15T15:00:33;3.52;;;1.80;;
16705;SDS011;8469;60.136;15.180;2024-02-15T15:03:01;2.37;;;1.98;;
16705;SDS011;8469;60.136;15.180;2024-02-15T15:05:29;2.20;;;2.00;;
16705;SDS011;8469;60.136;15.180;2024-02-15T15:08:14;2.00;;;1.90;;
16705;SDS011;8469;60.136;15.180;2024-02-15T15:10:59;2.72;;;1.98;;
16705;SDS011;8469;60.136;15.180;2024-02-15T15:13:45;4.62;;;2.08;;